Time;durP1;ratioP1;P1;durP2;ratioP2;P2;SDS_P1;SDS_P2;PMS_P1;PMS_P2;Temp;Humidity;BMP_temperature;BMP_pressure;BME280_temperature;BME280_humidity;BME280_pressure;Samples;Min_cycle;Max_cycle;Signal;HPM_P1;HPM_P2
2023/09/03 00:01:28;;;;;;;4.57;2.70;;;;;;;-141.50;100.00;63355.56;5033539;28;20128;-81
2023/09/03 00:04:16;;;;;;;3.63;2.65;;;;;;;-141.50;100.00;63355.56;5040484;28;20041;-82
2023/09/03 00:07:03;;;;;;;4.38;2.60;;;;;;;-141.50;100.00;63355.56;5035418;28;20069;-80
2023/09/03 00:09:50;;;;;;;3.90;2.58;;;;;;;-141.50;100.00;63355.56;5047306;28;20590;-80
2023/09/03 00:12:38;;;;;;;3.38;2.50;;;;;;;-141.50;100.00;63355.56;5028106;28;20462;-81
2023/09/03 00:15:25;;;;;;;4.65;3.00;;;;;;;-141.50;100.00;63355.56;5040028;28;20050;-81
2023/09/03 00:18:14;;;;;;;3.83;2.53;;;;;;;-141.50;100.00;63355.56;5030936;28;20061;-80
2023/09/03 00:21:14;;;;;;;4.53;2.72;;;;;;;-141.50;100.00;63355.56;5036588;28;20076;-81
2023/09/03 00:24:01;;;;;;;3.67;2.47;;;;;;;-141.50;100.00;63355.56;5048691;28;20796;-80
2023/09/03 00:26:49;;;;;;;4.28;2.97;;;;;;;-141.50;100.00;63355.56;5020836;28;20125;-81
2023/09/03 00:29:36;;;;;;;5.05;2.80;;;;;;;-141.50;100.00;63355.56;5022835;28;20141;-80
2023/09/03 00:32:24;;;;;;;5.65;2.50;;;;;;;-141.50;100.00;63355.56;5039675;28;20401;-80
2023/09/03 00:35:10;;;;;;;3.60;2.40;;;;;;;-141.50;100.00;63355.56;5038966;28;20045;-81
2023/09/03 00:37:58;;;;;;;4.50;2.50;;;;;;;-141.50;100.00;63355.56;5044434;28;20046;-80
2023/09/03 00:40:45;;;;;;;4.72;2.50;;;;;;;-141.50;100.00;63355.56;5030756;28;20053;-79
2023/09/03 00:43:33;;;;;;;6.03;2.85;;;;;;;-141.50;100.00;63355.56;5030457;28;20049;-79
2023/09/03 00:46:23;;;;;;;3.75;2.50;;;;;;;-141.50;100.00;63355.56;5050032;28;20085;-80
2023/09/03 00:49:19;;;;;;;5.30;2.70;;;;;;;-141.50;100.00;63355.56;5032386;28;20052;-80
2023/09/03 00:52:07;;;;;;;3.50;2.25;;;;;;;-141.50;100.00;63355.56;5032209;28;20404;-80
2023/09/03 00:54:54;;;;;;;3.72;2.20;;;;;;;-141.50;100.00;63355.56;5028979;28;20075;-80
2023/09/03 00:57:42;;;;;;;5.53;2.90;;;;;;;-141.50;100.00;63355.56;5030336;28;20044;-80
2023/09/03 01:00:30;;;;;;;4.35;2.83;;;;;;;-141.50;100.00;63355.56;5022069;28;20063;-81
2023/09/03 01:03:18;;;;;;;6.05;2.22;;;;;;;-141.50;100.00;63355.56;5041731;28;20460;-81
2023/09/03 01:06:06;;;;;;;5.57;2.70;;;;;;;-141.50;100.00;63355.56;5026061;28;20440;-81
2023/09/03 01:08:54;;;;;;;3.88;2.47;;;;;;;-141.50;100.00;63355.56;5036283;28;20092;-81
2023/09/03 01:12:10;;;;;;;4.20;2.40;;;;;;;-141.50;100.00;63355.56;5026020;28;20044;-80
2023/09/03 01:15:05;;;;;;;4.63;2.60;;;;;;;-141.50;100.00;63355.56;5055181;28;20029;-81
2023/09/03 01:18:08;;;;;;;5.93;2.77;;;;;;;-141.50;100.00;63355.56;5031101;28;20225;-82
2023/09/03 01:21:10;;;;;;;6.70;2.60;;;;;;;-141.50;100.00;63355.56;5040280;28;20260;-78
2023/09/03 01:24:27;;;;;;;4.90;2.35;;;;;;;-141.50;100.00;63355.56;5060255;28;20052;-83
2023/09/03 01:27:23;;;;;;;4.22;2.45;;;;;;;-141.50;100.00;63355.56;5023452;28;20080;-81
2023/09/03 01:30:12;;;;;;;4.72;2.75;;;;;;;-141.50;100.00;63355.56;5035635;28;20046;-80
2023/09/03 01:33:01;;;;;;;4.72;2.80;;;;;;;-141.50;100.00;63355.56;5029679;28;20045;-81
2023/09/03 01:35:49;;;;;;;4.15;2.50;;;;;;;-141.50;100.00;63355.56;5033733;28;20049;-82
2023/09/03 01:38:37;;;;;;;4.57;2.60;;;;;;;-141.50;100.00;63355.56;5037271;28;20071;-81
2023/09/03 01:41:25;;;;;;;3.58;2.22;;;;;;;-141.50;100.00;63355.56;5051889;28;20045;-81
2023/09/03 01:44:15;;;;;;;3.20;1.88;;;;;;;-141.50;100.00;63355.56;5051967;28;20339;-82
2023/09/03 01:47:14;;;;;;;3.97;2.03;;;;;;;-141.50;100.00;63355.56;5041656;28;21286;-81
2023/09/03 01:50:10;;;;;;;5.13;2.33;;;;;;;-141.50;100.00;63355.56;5030188;28;20049;-80
2023/09/03 01:53:13;;;;;;;5.70;2.10;;;;;;;-141.50;100.00;63355.56;5045261;28;20041;-81
2023/09/03 01:56:02;;;;;;;6.63;2.15;;;;;;;-141.50;100.00;63355.56;5039943;28;20294;-80
2023/09/03 01:58:35;;;;;;;3.65;2.30;;;;;;;-141.50;100.00;63355.56;5020689;28;20054;-81
2023/09/03 02:01:10;;;;;;;3.85;2.33;;;;;;;-141.50;100.00;63355.56;5038574;28;20046;-80
2023/09/03 02:03:45;;;;;;;3.95;2.30;;;;;;;-141.50;100.00;63355.56;5031605;28;20037;-82
2023/09/03 02:06:20;;;;;;;4.22;2.17;;;;;;;-141.50;100.00;63355.56;5052413;28;20084;-81
2023/09/03 02:08:58;;;;;;;4.07;2.30;;;;;;;-141.50;100.00;63355.56;5051393;28;20040;-81
2023/09/03 02:11:35;;;;;;;4.28;2.20;;;;;;;-141.50;100.00;63355.56;5032895;28;20041;-79
2023/09/03 02:14:13;;;;;;;3.47;2.35;;;;;;;-141.50;100.00;63355.56;5059224;28;20067;-80
2023/09/03 02:16:49;;;;;;;4.45;2.20;;;;;;;-141.50;100.00;63355.56;5034646;28;20397;-81
2023/09/03 02:19:32;;;;;;;4.25;2.38;;;;;;;-141.50;100.00;63355.56;5031780;28;20072;-81
2023/09/03 02:22:00;;;;;;;3.00;1.80;;;;;;;-141.50;100.00;63355.56;5049907;28;20112;-81
2023/09/03 02:24:43;;;;;;;3.78;2.35;;;;;;;-141.50;100.00;63355.56;5037385;28;20111;-81
2023/09/03 02:27:18;;;;;;;6.63;2.20;;;;;;;-141.50;100.00;63355.56;5011418;28;20522;-81
2023/09/03 02:29:51;;;;;;;3.35;2.10;;;;;;;-141.50;100.00;63355.56;5042249;28;20041;-81
2023/09/03 02:32:23;;;;;;;2.70;2.17;;;;;;;-141.50;100.00;63355.56;5039890;28;20508;-82
2023/09/03 02:34:55;;;;;;;3.40;2.03;;;;;;;-141.50;100.00;63355.56;5063152;28;20044;-82
2023/09/03 02:37:27;;;;;;;2.78;2.00;;;;;;;-141.50;100.00;63355.56;5039614;28;20050;-81
2023/09/03 02:39:58;;;;;;;4.10;1.88;;;;;;;-141.50;100.00;63355.56;5049931;28;20041;-82
2023/09/03 02:42:34;;;;;;;2.75;1.80;;;;;;;-141.50;100.00;63355.56;5042476;28;20045;-81
2023/09/03 02:45:10;;;;;;;3.83;2.10;;;;;;;-141.50;100.00;63355.56;5018137;28;20076;-82
2023/09/03 02:47:58;;;;;;;3.95;2.15;;;;;;;-141.50;100.00;63355.56;5033921;28;20049;-83
2023/09/03 02:50:47;;;;;;;3.22;2.25;;;;;;;-141.50;100.00;63355.56;5037279;28;20048;-80
2023/09/03 02:53:34;;;;;;;3.83;2.13;;;;;;;-141.50;100.00;63355.56;5018383;28;20097;-81
2023/09/03 02:56:22;;;;;;;5.63;2.13;;;;;;;-141.50;100.00;63355.56;5033760;28;20854;-81
2023/09/03 02:59:10;;;;;;;3.58;2.20;;;;;;;-141.50;100.00;63355.56;5033389;28;20392;-82
2023/09/03 03:01:59;;;;;;;3.38;2.05;;;;;;;-141.50;100.00;63355.56;5031049;28;20204;-81
2023/09/03 03:04:46;;;;;;;3.70;2.10;;;;;;;-141.50;100.00;63355.56;5027959;28;20053;-79
2023/09/03 03:07:36;;;;;;;3.03;1.88;;;;;;;-141.50;100.00;63355.56;4987940;28;21037;-79
2023/09/03 03:10:23;;;;;;;4.38;2.20;;;;;;;-141.50;100.00;63355.56;5012870;28;20107;-80
2023/09/03 03:13:11;;;;;;;3.30;2.15;;;;;;;-141.50;100.00;63355.56;5036621;28;20049;-80
2023/09/03 03:16:03;;;;;;;3.47;2.00;;;;;;;-141.50;100.00;63355.56;5028563;28;20049;-81
2023/09/03 03:18:52;;;;;;;4.20;2.03;;;;;;;-141.50;100.00;63355.56;5027746;28;20076;-80
2023/09/03 03:21:43;;;;;;;2.05;1.60;;;;;;;-141.50;100.00;63355.56;5017332;28;20056;-81
2023/09/03 03:24:31;;;;;;;3.15;1.90;;;;;;;-141.50;100.00;63355.56;5036490;28;20045;-80
2023/09/03 03:27:20;;;;;;;3.13;1.80;;;;;;;-141.50;100.00;63355.56;5036271;28;20142;-80
2023/09/03 03:30:07;;;;;;;2.70;1.80;;;;;;;-141.50;100.00;63355.56;5037292;28;20119;-79
2023/09/03 03:32:54;;;;;;;2.50;1.77;;;;;;;-141.50;100.00;63355.56;5016538;28;20660;-80
2023/09/03 03:35:42;;;;;;;3.00;2.08;;;;;;;-141.50;100.00;63355.56;5032553;28;20064;-81
2023/09/03 03:38:30;;;;;;;3.05;1.70;;;;;;;-141.50;100.00;63355.56;5042122;28;20045;-81
2023/09/03 03:41:30;;;;;;;6.65;2.00;;;;;;;-141.50;100.00;63355.56;5021302;28;20128;-81
2023/09/03 03:44:18;;;;;;;2.97;1.75;;;;;;;-141.50;100.00;63355.56;5036527;28;20037;-81
2023/09/03 03:47:05;;;;;;;2.42;1.60;;;;;;;-141.50;100.00;63355.56;5046363;28;20053;-81
2023/09/03 03:49:53;;;;;;;4.07;1.90;;;;;;;-141.50;100.00;63355.56;5029395;28;22086;-80
2023/09/03 03:52:40;;;;;;;3.92;1.90;;;;;;;-141.50;100.00;63355.56;5012884;28;20470;-79
2023/09/03 03:55:28;;;;;;;4.38;1.90;;;;;;;-141.50;100.00;63355.56;5019507;28;21897;-81
2023/09/03 03:58:15;;;;;;;3.75;1.90;;;;;;;-141.50;100.00;63355.56;5028765;28;20102;-81
2023/09/03 04:01:19;;;;;;;3.65;2.00;;;;;;;-141.50;100.00;63355.56;5035521;28;20115;-80
2023/09/03 04:04:08;;;;;;;2.50;1.90;;;;;;;-141.50;100.00;63355.56;5022128;28;20080;-82
2023/09/03 04:06:55;;;;;;;3.53;1.83;;;;;;;-141.50;100.00;63355.56;5040811;28;20183;-80
2023/09/03 04:09:43;;;;;;;2.67;1.70;;;;;;;-141.50;100.00;63355.56;5030417;28;20045;-81
2023/09/03 04:12:30;;;;;;;4.43;1.40;;;;;;;-141.50;100.00;63355.56;5018369;28;20041;-81
2023/09/03 04:15:18;;;;;;;2.85;1.90;;;;;;;-141.50;100.00;63355.56;5009816;28;20578;-79
2023/09/03 04:18:05;;;;;;;4.82;2.10;;;;;;;-141.50;100.00;63355.56;5019342;28;20502;-80
2023/09/03 04:20:53;;;;;;;3.08;2.10;;;;;;;-141.50;100.00;63355.56;5026349;28;20737;-81
2023/09/03 04:23:42;;;;;;;3.75;1.60;;;;;;;-141.50;100.00;63355.56;5040134;28;21233;-81
2023/09/03 04:26:30;;;;;;;2.72;2.10;;;;;;;-141.50;100.00;63355.56;5029808;28;20052;-82
2023/09/03 04:29:18;;;;;;;3.35;1.73;;;;;;;-141.50;100.00;63355.56;5028558;28;20979;-80
2023/09/03 04:32:06;;;;;;;2.13;1.65;;;;;;;-141.50;100.00;63355.56;5023905;28;20045;-81
2023/09/03 04:34:54;;;;;;;1.98;1.50;;;;;;;-141.50;100.00;63355.56;5034538;28;20045;-80
2023/09/03 04:37:42;;;;;;;4.38;2.00;;;;;;;-141.50;100.00;63355.56;5018762;28;20103;-80
2023/09/03 04:40:36;;;;;;;2.25;1.88;;;;;;;-141.50;100.00;63355.56;4994220;28;20115;-81
2023/09/03 04:43:26;;;;;;;2.88;1.77;;;;;;;-141.50;100.00;63355.56;5031282;28;20461;-81
2023/09/03 04:46:14;;;;;;;2.85;1.98;;;;;;;-141.50;100.00;63355.56;5044526;28;20049;-80
2023/09/03 04:49:01;;;;;;;2.10;1.67;;;;;;;-141.50;100.00;63355.56;5009654;28;20045;-80
2023/09/03 04:51:49;;;;;;;2.55;1.50;;;;;;;-141.50;100.00;63355.56;5012183;28;20057;-80
2023/09/03 04:54:39;;;;;;;2.25;1.85;;;;;;;-141.50;100.00;63355.56;5019709;28;20045;-81
2023/09/03 04:57:27;;;;;;;2.33;1.77;;;;;;;-141.50;100.00;63355.56;5028308;28;20045;-80
2023/09/03 05:00:17;;;;;;;4.35;2.60;;;;;;;-141.50;100.00;63355.56;5030663;28;20584;-80
2023/09/03 05:03:04;;;;;;;4.13;2.97;;;;;;;-141.50;100.00;63355.56;5040318;28;20045;-80
2023/09/03 05:06:06;;;;;;;6.30;3.67;;;;;;;-141.50;100.00;63355.56;5012091;28;20061;-79
2023/09/03 05:08:54;;;;;;;7.15;4.28;;;;;;;-141.50;100.00;63355.56;5022544;28;20063;-80
2023/09/03 05:11:42;;;;;;;7.70;4.55;;;;;;;-141.50;100.00;63355.56;5047541;28;20140;-80
2023/09/03 05:14:30;;;;;;;9.57;5.70;;;;;;;-141.50;100.00;63355.56;5057756;28;20104;-79
2023/09/03 05:17:18;;;;;;;11.35;5.95;;;;;;;-141.50;100.00;63355.56;5022652;28;20132;-79
2023/09/03 05:20:06;;;;;;;10.15;5.93;;;;;;;-141.50;100.00;63355.56;5027854;28;20067;-79
2023/09/03 05:22:56;;;;;;;9.95;6.43;;;;;;;-141.50;100.00;63355.56;5020508;28;20045;-81
2023/09/03 05:25:46;;;;;;;13.10;5.80;;;;;;;-141.50;100.00;63355.56;5034258;28;20107;-82
2023/09/03 05:28:34;;;;;;;11.52;6.70;;;;;;;-141.50;100.00;63355.56;5016757;28;20095;-81
2023/09/03 05:31:21;;;;;;;13.13;7.25;;;;;;;-141.50;100.00;63355.56;5037639;28;20702;-81
2023/09/03 05:34:09;;;;;;;11.98;7.18;;;;;;;-141.50;100.00;63355.56;5028156;28;20059;-81
2023/09/03 05:36:56;;;;;;;11.55;7.07;;;;;;;-141.50;100.00;63355.56;5033220;28;20045;-80
2023/09/03 05:39:44;;;;;;;11.90;7.30;;;;;;;-141.50;100.00;63355.56;5031473;28;20118;-80
2023/09/03 05:42:31;;;;;;;13.00;7.72;;;;;;;-141.50;100.00;63355.56;5021359;28;20562;-80
2023/09/03 05:45:19;;;;;;;14.05;7.85;;;;;;;-141.50;100.00;63355.56;5026368;28;20052;-81
2023/09/03 05:47:58;;;;;;;12.77;7.72;;;;;;;-141.50;100.00;63355.56;5038321;28;20056;-81
2023/09/03 05:50:55;;;;;;;14.27;7.95;;;;;;;-141.50;100.00;63355.56;5013950;28;20057;-81
2023/09/03 05:53:42;;;;;;;;;;;;;;;-141.50;100.00;63355.56;5016953;28;20864;-82
2023/09/03 05:56:31;;;;;;;14.85;8.60;;;;;;;-141.50;100.00;63355.56;5034458;28;19932;-82
2023/09/03 05:59:19;;;;;;;14.63;8.02;;;;;;;-141.50;100.00;63355.56;5032421;28;20065;-81
2023/09/03 06:02:06;;;;;;;15.95;9.25;;;;;;;-141.50;100.00;63355.56;5026520;28;20427;-82
2023/09/03 06:04:53;;;;;;;13.63;8.20;;;;;;;-141.50;100.00;63355.56;5035761;28;20561;-81
2023/09/03 06:07:41;;;;;;;18.52;10.27;;;;;;;-141.50;100.00;63355.56;5041653;28;20048;-82
2023/09/03 06:10:28;;;;;;;17.15;10.25;;;;;;;-141.50;100.00;63355.56;5037886;28;21730;-80
2023/09/03 06:13:15;;;;;;;19.77;12.52;;;;;;;-141.50;100.00;63355.56;5048771;28;20571;-82
2023/09/03 06:16:03;;;;;;;22.77;13.85;;;;;;;-141.50;100.00;63355.56;5036800;28;20064;-82
2023/09/03 06:18:50;;;;;;;21.10;12.90;;;;;;;-141.50;100.00;63355.56;5045894;28;20521;-82
2023/09/03 06:21:38;;;;;;;20.67;12.75;;;;;;;-141.50;100.00;63355.56;5042112;28;20610;-82
2023/09/03 06:24:26;;;;;;;21.35;12.73;;;;;;;-141.50;100.00;63355.56;5036240;28;20902;-82
2023/09/03 06:27:17;;;;;;;24.08;12.70;;;;;;;-141.50;100.00;63355.56;5053924;28;20049;-83
2023/09/03 06:30:04;;;;;;;23.27;12.48;;;;;;;-141.50;100.00;63355.56;5045590;28;20065;-80
2023/09/03 06:32:52;;;;;;;20.83;12.82;;;;;;;-141.50;100.00;63355.56;5027995;28;20049;-79
2023/09/03 06:35:40;;;;;;;21.55;12.00;;;;;;;-141.50;100.00;63355.56;5024603;28;20040;-80
2023/09/03 06:38:27;;;;;;;19.45;11.73;;;;;;;-141.50;100.00;63355.56;5041786;28;21776;-79
2023/09/03 06:41:15;;;;;;;18.13;12.05;;;;;;;-141.50;100.00;63355.56;5035482;28;21394;-82
2023/09/03 06:44:02;;;;;;;19.02;12.32;;;;;;;-141.50;100.00;63355.56;5036702;28;20710;-81
2023/09/03 06:46:51;;;;;;;19.90;12.25;;;;;;;-141.50;100.00;63355.56;5042984;28;20655;-83
2023/09/03 06:49:38;;;;;;;17.98;11.80;;;;;;;-141.50;100.00;63355.56;5036179;28;20052;-82
2023/09/03 06:52:25;;;;;;;22.25;11.80;;;;;;;-141.50;100.00;63355.56;5034773;28;20109;-82
2023/09/03 06:55:13;;;;;;;19.75;12.15;;;;;;;-141.50;100.00;63355.56;5039746;28;21047;-77
2023/09/03 06:58:04;;;;;;;20.40;12.65;;;;;;;-141.50;100.00;63355.56;5030519;28;20467;-78
2023/09/03 07:00:53;;;;;;;20.70;13.15;;;;;;;-141.50;100.00;63355.56;5028908;28;20651;-77
2023/09/03 07:03:43;;;;;;;20.15;12.43;;;;;;;-141.50;100.00;63355.56;5054669;28;20072;-78
2023/09/03 07:06:30;;;;;;;21.05;13.45;;;;;;;-141.50;100.00;63355.56;5027853;28;20037;-77
2023/09/03 07:09:17;;;;;;;21.90;12.25;;;;;;;-141.50;100.00;63355.56;5042186;28;20547;-80
2023/09/03 07:12:09;;;;;;;22.08;12.70;;;;;;;-141.50;100.00;63355.56;5044225;28;20606;-79
2023/09/03 07:14:56;;;;;;;17.35;11.73;;;;;;;-141.50;100.00;63355.56;5045121;28;20580;-79
2023/09/03 07:17:44;;;;;;;23.08;12.65;;;;;;;-141.50;100.00;63355.56;5045531;28;20490;-80
2023/09/03 07:20:31;;;;;;;20.67;11.57;;;;;;;-141.50;100.00;63355.56;5039307;28;20819;-79
2023/09/03 07:23:19;;;;;;;18.02;11.52;;;;;;;-141.50;100.00;63355.56;5045122;28;20041;-79
2023/09/03 07:26:08;;;;;;;23.73;12.20;;;;;;;-141.50;100.00;63355.56;5048117;28;21368;-79
2023/09/03 07:28:58;;;;;;;18.55;11.40;;;;;;;-141.50;100.00;63355.56;5044457;28;20072;-82
2023/09/03 07:31:45;;;;;;;17.08;10.63;;;;;;;-141.50;100.00;63355.56;5024752;28;20054;-81
2023/09/03 07:34:34;;;;;;;19.70;12.20;;;;;;;-141.50;100.00;63355.56;5035129;28;20052;-82
2023/09/03 07:37:21;;;;;;;16.35;10.90;;;;;;;-141.50;100.00;63355.56;5044033;28;20048;-81
2023/09/03 07:40:09;;;;;;;17.52;11.43;;;;;;;-141.50;100.00;63355.56;5043966;28;20106;-81
2023/09/03 07:42:47;;;;;;;15.95;11.13;;;;;;;-141.50;100.00;63355.56;5020442;28;20103;-81
2023/09/03 07:45:30;;;;;;;18.38;11.35;;;;;;;-141.50;100.00;63355.56;5008685;28;20076;-81
2023/09/03 07:48:03;;;;;;;14.73;10.15;;;;;;;-141.50;100.00;63355.56;5016144;28;20037;-81
2023/09/03 07:50:49;;;;;;;17.58;11.13;;;;;;;-141.50;100.00;63355.56;5034979;28;20046;-81
2023/09/03 07:53:33;;;;;;;17.50;11.15;;;;;;;-141.50;100.00;63355.56;5026458;28;20050;-83
2023/09/03 07:56:18;;;;;;;15.25;9.55;;;;;;;-141.50;100.00;63355.56;5016961;28;20049;-81
2023/09/03 07:59:03;;;;;;;14.95;10.13;;;;;;;-141.50;100.00;63355.56;5033644;28;20098;-81
2023/09/03 08:01:34;;;;;;;15.98;9.88;;;;;;;-141.50;100.00;63355.56;5039267;28;20034;-81
2023/09/03 08:04:01;;;;;;;14.40;10.02;;;;;;;-141.50;100.00;63355.56;5025702;28;20658;-82
2023/09/03 08:06:28;;;;;;;14.70;9.85;;;;;;;-141.50;100.00;63355.56;5023440;28;20052;-82
2023/09/03 08:08:55;;;;;;;15.65;9.63;;;;;;;-141.50;100.00;63355.56;5012656;28;20095;-83
2023/09/03 08:11:22;;;;;;;15.73;10.00;;;;;;;-141.50;100.00;63355.56;5018930;28;20045;-83
2023/09/03 08:13:57;;;;;;;15.80;10.18;;;;;;;-141.50;100.00;63355.56;5010531;28;20548;-81
2023/09/03 08:16:45;;;;;;;18.58;10.05;;;;;;;-141.50;100.00;63355.56;5037680;28;20532;-81
2023/09/03 08:19:34;;;;;;;16.48;10.35;;;;;;;-141.50;100.00;63355.56;5037148;28;20446;-83
2023/09/03 08:22:02;;;;;;;14.73;9.52;;;;;;;-141.50;100.00;63355.56;5037240;28;20045;-82
2023/09/03 08:24:29;;;;;;;14.75;9.85;;;;;;;-141.50;100.00;63355.56;5028045;28;20099;-81
2023/09/03 08:26:59;;;;;;;14.63;10.02;;;;;;;-141.50;100.00;63355.56;5004743;28;20034;-82
2023/09/03 08:29:25;;;;;;;13.45;9.40;;;;;;;-141.50;100.00;63355.56;5007475;28;20041;-82
2023/09/03 08:31:52;;;;;;;14.93;10.45;;;;;;;-141.50;100.00;63355.56;5009725;28;20050;-82
2023/09/03 08:34:19;;;;;;;18.00;11.25;;;;;;;-141.50;100.00;63355.56;5015312;28;20041;-81
2023/09/03 08:36:46;;;;;;;15.35;10.35;;;;;;;-141.50;100.00;63355.56;4993132;28;20045;-82
2023/09/03 08:39:13;;;;;;;14.80;10.20;;;;;;;-141.50;100.00;63355.56;5009090;28;20054;-81
2023/09/03 08:41:40;;;;;;;15.98;9.55;;;;;;;-141.50;100.00;63355.56;5000704;28;20041;-81
2023/09/03 08:44:20;;;;;;;14.07;9.50;;;;;;;-141.50;100.00;63355.56;5014273;28;20042;-82
2023/09/03 08:46:51;;;;;;;13.25;8.68;;;;;;;-141.50;100.00;63355.56;5023801;28;20671;-81
2023/09/03 08:49:18;;;;;;;14.85;8.75;;;;;;;-141.50;100.00;63355.56;5010745;28;20099;-82
2023/09/03 08:51:45;;;;;;;11.40;8.10;;;;;;;-141.50;100.00;63355.56;5001590;28;20042;-80
2023/09/03 08:54:12;;;;;;;12.20;7.85;;;;;;;-141.50;100.00;63355.56;5010583;28;20046;-82
2023/09/03 08:56:53;;;;;;;12.73;8.35;;;;;;;-141.50;100.00;63355.56;5019623;28;20539;-82
2023/09/03 08:59:19;;;;;;;13.10;8.00;;;;;;;-141.50;100.00;63355.56;5000631;28;20045;-82
2023/09/03 09:01:52;;;;;;;13.63;8.30;;;;;;;-141.50;100.00;63355.56;5015504;28;20045;-82
2023/09/03 09:04:40;;;;;;;14.25;7.47;;;;;;;-141.50;100.00;63355.56;5006524;28;20042;-82
2023/09/03 09:07:29;;;;;;;12.45;7.30;;;;;;;-141.50;100.00;63355.56;5066755;28;20580;-82
2023/09/03 09:10:21;;;;;;;11.57;8.00;;;;;;;-141.50;100.00;63355.56;5059681;28;20127;-81
2023/09/03 09:13:24;;;;;;;10.55;6.95;;;;;;;-141.50;100.00;63355.56;5037379;28;20095;-82
2023/09/03 09:16:11;;;;;;;11.73;7.30;;;;;;;-141.50;100.00;63355.56;5059832;28;20552;-82
2023/09/03 09:19:02;;;;;;;10.57;7.25;;;;;;;-141.50;100.00;63355.56;5032040;28;20227;-81
2023/09/03 09:21:51;;;;;;;11.27;6.05;;;;;;;-141.50;100.00;63355.56;5042787;28;20400;-83
2023/09/03 09:24:45;;;;;;;8.15;5.47;;;;;;;-141.50;100.00;63355.56;5033310;28;20038;-83
2023/09/03 09:27:29;;;;;;;8.60;5.88;;;;;;;-141.50;100.00;63355.56;5029332;28;20050;-83
2023/09/03 09:30:24;;;;;;;7.70;5.00;;;;;;;-141.50;100.00;63355.56;5032279;28;20547;-82
2023/09/03 09:33:16;;;;;;;7.82;5.57;;;;;;;-141.50;100.00;63355.56;5030477;28;20821;-84
2023/09/03 09:36:08;;;;;;;8.77;4.82;;;;;;;-141.50;100.00;63355.56;5054638;28;20041;-82
2023/09/03 09:39:03;;;;;;;8.10;5.50;;;;;;;-141.50;100.00;63355.56;5036344;28;20049;-83
2023/09/03 09:42:04;;;;;;;6.18;4.72;;;;;;;-141.50;100.00;63355.56;5045325;28;20053;-83
2023/09/03 09:44:51;;;;;;;7.25;4.85;;;;;;;-141.50;100.00;63355.56;5029955;28;20075;-84
2023/09/03 09:47:18;;;;;;;;;;;;;;;-141.50;100.00;63355.56;5032469;28;20080;-82
2023/09/03 09:49:48;;;;;;;6.28;4.20;;;;;;;-141.50;100.00;63355.56;5063824;28;20280;-83
2023/09/03 09:52:16;;;;;;;6.25;4.03;;;;;;;-141.50;100.00;63355.56;5034903;28;20041;-82
2023/09/03 09:54:48;;;;;;;6.35;4.20;;;;;;;-141.50;100.00;63355.56;5040627;28;20041;-82
2023/09/03 09:57:16;;;;;;;6.50;3.97;;;;;;;-141.50;100.00;63355.56;5027207;28;20049;-81
2023/09/03 09:59:44;;;;;;;6.13;3.75;;;;;;;-141.50;100.00;63355.56;5039915;28;20065;-80
2023/09/03 10:02:15;;;;;;;7.18;3.70;;;;;;;-141.50;100.00;63355.56;5030442;28;20549;-80
2023/09/03 10:04:46;;;;;;;5.35;3.42;;;;;;;-141.50;100.00;63355.56;5042480;28;20040;-80
2023/09/03 10:07:13;;;;;;;5.88;3.38;;;;;;;-141.50;100.00;63355.56;5021286;28;20423;-80
2023/09/03 10:09:42;;;;;;;5.70;3.22;;;;;;;-141.50;100.00;63355.56;5029374;28;20117;-81
2023/09/03 10:12:10;;;;;;;7.55;3.60;;;;;;;-141.50;100.00;63355.56;5029417;28;20115;-80
2023/09/03 10:14:38;;;;;;;5.05;3.10;;;;;;;-141.50;100.00;63355.56;5042537;28;20037;-80
2023/09/03 10:17:06;;;;;;;4.70;2.63;;;;;;;-141.50;100.00;63355.56;5032419;28;20049;-80
2023/09/03 10:19:48;;;;;;;5.40;3.20;;;;;;;-141.50;100.00;63355.56;5025676;28;20061;-82
2023/09/03 10:22:18;;;;;;;4.63;2.70;;;;;;;-141.50;100.00;63355.56;5039017;28;20068;-80
2023/09/03 10:25:11;;;;;;;4.25;2.72;;;;;;;-141.50;100.00;63355.56;5035036;28;20049;-81
2023/09/03 10:27:43;;;;;;;4.85;2.95;;;;;;;-141.50;100.00;63355.56;5024860;28;20049;-82
2023/09/03 10:30:14;;;;;;;5.57;2.78;;;;;;;-141.50;100.00;63355.56;5031918;28;20792;-82
2023/09/03 10:32:42;;;;;;;3.58;2.63;;;;;;;-141.50;100.00;63355.56;5057586;28;20145;-81
2023/09/03 10:35:11;;;;;;;5.60;3.00;;;;;;;-141.50;100.00;63355.56;5032447;28;20106;-82
2023/09/03 10:37:40;;;;;;;3.90;2.92;;;;;;;-141.50;100.00;63355.56;5061751;28;20042;-82
2023/09/03 10:40:32;;;;;;;4.00;2.63;;;;;;;-141.50;100.00;63355.56;5037092;28;20038;-82
2023/09/03 10:43:28;;;;;;;7.88;3.25;;;;;;;-141.50;100.00;63355.56;5035050;28;20045;-82
2023/09/03 10:46:25;;;;;;;5.72;3.40;;;;;;;-141.50;100.00;63355.56;5043406;28;20377;-81
2023/09/03 10:49:14;;;;;;;6.38;3.33;;;;;;;-141.50;100.00;63355.56;5035926;28;20096;-81
2023/09/03 10:52:01;;;;;;;8.07;3.20;;;;;;;-141.50;100.00;63355.56;5031850;28;20656;-82
2023/09/03 10:55:08;;;;;;;5.28;3.00;;;;;;;-141.50;100.00;63355.56;5032939;28;20419;-82
2023/09/03 10:58:08;;;;;;;4.60;2.80;;;;;;;-141.50;100.00;63355.56;5042682;28;20381;-82
2023/09/03 11:01:26;;;;;;;4.60;2.63;;;;;;;-141.50;100.00;63355.56;5019722;28;20188;-82
2023/09/03 11:04:14;;;;;;;5.57;3.00;;;;;;;-141.50;100.00;63355.56;5020762;28;20136;-81
2023/09/03 11:07:21;;;;;;;4.43;2.85;;;;;;;-141.50;100.00;63355.56;5029097;28;20441;-80
2023/09/03 11:09:48;;;;;;;6.05;3.38;;;;;;;-141.50;100.00;63355.56;5044779;28;20424;-82
2023/09/03 11:12:18;;;;;;;5.50;3.25;;;;;;;-141.50;100.00;63355.56;5032451;28;20450;-81
2023/09/03 11:15:06;;;;;;;4.75;3.08;;;;;;;-141.50;100.00;63355.56;5024463;28;20515;-82
2023/09/03 11:17:33;;;;;;;5.13;3.30;;;;;;;-141.50;100.00;63355.56;5030642;28;20041;-81
2023/09/03 11:20:01;;;;;;;4.68;2.95;;;;;;;-141.50;100.00;63355.56;5038163;28;20037;-82
2023/09/03 11:22:47;;;;;;;5.85;3.25;;;;;;;-141.50;100.00;63355.56;5027148;28;20056;-79
2023/09/03 11:25:36;;;;;;;5.93;3.20;;;;;;;-141.50;100.00;63355.56;5051285;28;20053;-79
2023/09/03 11:28:07;;;;;;;4.85;2.97;;;;;;;-141.50;100.00;63355.56;5031606;28;20048;-78
2023/09/03 11:30:46;;;;;;;5.03;2.70;;;;;;;-141.50;100.00;63355.56;5042779;28;20037;-79
2023/09/03 11:33:46;;;;;;;4.45;2.97;;;;;;;-141.50;100.00;63355.56;5067424;28;20068;-79
2023/09/03 11:36:33;;;;;;;4.85;2.75;;;;;;;-141.50;100.00;63355.56;5031024;28;20622;-80
2023/09/03 11:39:21;;;;;;;5.30;2.67;;;;;;;-141.50;100.00;63355.56;5028631;28;20689;-85
2023/09/03 11:42:10;;;;;;;5.22;2.60;;;;;;;-141.50;100.00;63355.56;5020757;28;20037;-79
2023/09/03 11:45:00;;;;;;;6.82;3.25;;;;;;;-141.50;100.00;63355.56;5044012;28;20076;-78
2023/09/03 11:47:50;;;;;;;9.25;3.15;;;;;;;-141.50;100.00;63355.56;5022945;28;20037;-80
2023/09/03 11:50:38;;;;;;;4.75;2.90;;;;;;;-141.50;100.00;63355.56;5037708;28;20062;-78
2023/09/03 11:53:36;;;;;;;3.67;2.35;;;;;;;-141.50;100.00;63355.56;5036895;28;20120;-78
2023/09/03 11:56:25;;;;;;;4.32;2.80;;;;;;;-141.50;100.00;63355.56;5054270;28;20861;-78
2023/09/03 11:59:16;;;;;;;3.95;2.83;;;;;;;-141.50;100.00;63355.56;5019756;28;20650;-80
2023/09/03 12:02:03;;;;;;;4.80;2.90;;;;;;;-141.50;100.00;63355.56;5034149;28;21973;-80
2023/09/03 12:04:52;;;;;;;5.70;2.78;;;;;;;-141.50;100.00;63355.56;5036565;28;21909;-79
2023/09/03 12:07:39;;;;;;;4.50;2.42;;;;;;;-141.50;100.00;63355.56;5015964;28;20106;-81
2023/09/03 12:10:09;;;;;;;3.65;2.30;;;;;;;-141.50;100.00;63355.56;5034777;28;20049;-81
2023/09/03 12:12:36;;;;;;;5.15;3.10;;;;;;;-141.50;100.00;63355.56;5035881;28;20041;-80
2023/09/03 12:15:20;;;;;;;4.72;3.15;;;;;;;-141.50;100.00;63355.56;5035718;28;20136;-80
2023/09/03 12:18:07;;;;;;;5.57;3.00;;;;;;;-141.50;100.00;63355.56;5041764;28;21273;-80
2023/09/03 12:20:46;;;;;;;5.85;3.17;;;;;;;-141.50;100.00;63355.56;5035542;28;20052;-79
2023/09/03 12:23:35;;;;;;;5.75;3.85;;;;;;;-141.50;100.00;63355.56;5034423;28;20041;-80
2023/09/03 12:26:08;;;;;;;4.75;3.40;;;;;;;-141.50;100.00;63355.56;5034817;28;21969;-81